< Typhoon 200226 2003 Season Typhoon 200302 >
Typhoon 200301 (YANYAN)
General InformationTrack Information on Google MapsDetailed Wind InformationList of All Images || NewsDisaster Info.WeblogResourceGoogle EarthGE AnimationAtom FeedGeoJSON
Detalied Best Track (Time Zone = UTC)
Year Month Day Hour Lat. Long. Pressure (hPa) Wind (kt) Class Image Chart
2003 1 15 06 6.9 163.1 1004 0 2 Image Chart
2003 1 15 12 7.6 161.2 1004 0 2 Image Chart
2003 1 15 18 8.2 159.6 1002 0 2 Image Chart
2003 1 16 00 8.6 158.2 1004 0 2 Image Chart
2003 1 16 06 9.4 156.7 1004 0 2 Image Chart
2003 1 16 12 10.2 154.3 1004 0 2 Image Chart
2003 1 16 18 11.1 152.7 1004 0 2 Image Chart
2003 1 17 00 11.6 150.9 1004 0 2 Image Chart
2003 1 17 06 12.5 149.3 1002 0 2 Image Chart
2003 1 17 12 12.9 148.6 1004 0 2 Image Chart
2003 1 17 18 13.2 147.8 1004 0 2 Image Chart
2003 1 18 00 13.6 146.7 1004 0 2 Image Chart
2003 1 18 06 14.1 146.5 1000 35 3 Image Chart
2003 1 18 12 14.5 146.8 1000 35 3 Image Chart
2003 1 18 18 14.6 147.4 1000 35 3 Image Chart
2003 1 19 00 14.9 147.9 1000 35 3 Image Chart
2003 1 19 06 15.2 148.8 1000 35 3 Image Chart
2003 1 19 12 15.6 150.0 1000 35 3 Image Chart
2003 1 19 18 16.2 151.3 1000 35 3 Image Chart
2003 1 20 00 16.8 152.4 1000 35 3 Image Chart
2003 1 20 06 17.2 153.7 1000 35 3 Image Chart
2003 1 20 12 17.4 154.9 1004 0 2 Image Chart
2003 1 20 18 17.9 156.1 1004 0 2 Image Chart
2003 1 21 00 18.7 156.3 1004 0 6 Image Chart
Japan Meteorological Agency Best Track Data | Correction Date : 2004-02-17
< Typhoon 200226 2003 Season Typhoon 200302 >

Help